PWSweather.com
Personal Weather Stations
Station Observations

ChardChardGB

Lat: 50.877408, Lon: -2.94964741

Elevation: 341

Station Type: WS3083

http://www.merriott-astro.co.uk/weather/index.htm

High Low Average
Temperature 50.7°F10.4°C 46.8°F8.2°C 49.1°F9.5°C
Dew Point 45.9°F7.7°C 39.8°F4.3°C 43.7°F6.5°C
Winds 11.4 mph 18.3 kmh Calm Calm 5.0 mph SSE8.0 kmh SSE
Wind Gusts 19.7 mph31.7 kmh -- 8.0 mph12.9 kmh
Humidity 84% 10% 69%
Pressure 29.31 in992.6 mb 29.14 in986.8 mb -
Precipitation 0.01 in0.3 mm - -
Hour Temp Dew Point Humidity Winds Wind Gusts Pressure Precip Precip Rate Daily Precip Total
12:00 AM 48.4°F9.1°C 43.8°F6.6°C 84% 6.5 mph S10.5 kmh S 9.2 mph14.8 kmh 29.31 in992.6 mb 0.00 in0.0 mm 0.00 in0.0 mm 0.00 in0.0 mm
12:10 AM 48.4°F9.1°C 43.5°F6.4°C 83% 8.1 mph S13.0 kmh S 10.7 mph17.2 kmh 29.31 in992.6 mb 0.00 in0.0 mm 0.00 in0.0 mm 0.00 in0.0 mm
12:20 AM 48.4°F9.1°C 43.5°F6.4°C 83% 5.5 mph S8.9 kmh S 9.2 mph14.8 kmh 29.30 in992.2 mb 0.00 in0.0 mm 0.00 in0.0 mm 0.00 in0.0 mm
12:30 AM 48.2°F9.0°C 43.3°F6.3°C 83% 6.2 mph S10.0 kmh S 8.3 mph13.4 kmh 29.30 in992.2 mb 0.00 in0.0 mm 0.00 in0.0 mm 0.00 in0.0 mm
12:40 AM 48.0°F8.9°C 42.8°F6.0°C 82% 6.1 mph SSW9.8 kmh SSW 9.8 mph15.8 kmh 29.29 in991.9 mb 0.00 in0.0 mm 0.00 in0.0 mm 0.00 in0.0 mm
12:50 AM 47.8°F8.8°C 42.6°F5.9°C 82% 3.8 mph SW6.1 kmh SW 6.9 mph11.1 kmh 29.28 in991.5 mb 0.00 in0.0 mm 0.00 in0.0 mm 0.00 in0.0 mm
01:00 AM 47.8°F8.8°C 42.6°F5.9°C 82% 5.9 mph SSW9.5 kmh SSW 8.3 mph13.4 kmh 29.28 in991.5 mb 0.00 in0.0 mm 0.00 in0.0 mm 0.00 in0.0 mm
01:10 AM 47.8°F8.8°C 42.6°F5.9°C 82% 7.0 mph S11.3 kmh S 9.8 mph15.8 kmh 29.27 in991.2 mb 0.00 in0.0 mm 0.00 in0.0 mm 0.00 in0.0 mm
01:20 AM 47.8°F8.8°C 42.6°F5.9°C 82% 6.2 mph SSW10.0 kmh SSW 7.6 mph12.2 kmh 29.27 in991.2 mb 0.00 in0.0 mm 0.00 in0.0 mm 0.00 in0.0 mm
01:30 AM 48.2°F9.0°C 43.0°F6.1°C 82% 8.4 mph SW13.5 kmh SW 13.6 mph21.9 kmh 29.27 in991.2 mb 0.00 in0.0 mm 0.00 in0.0 mm 0.00 in0.0 mm
01:40 AM 48.2°F9.0°C 42.6°F5.9°C 81% 9.2 mph SSW14.8 kmh SSW 14.5 mph23.3 kmh 29.26 in990.9 mb 0.00 in0.0 mm 0.00 in0.0 mm 0.00 in0.0 mm
01:50 AM 48.4°F9.1°C 42.5°F5.8°C 80% 9.8 mph S15.8 kmh S 13.6 mph21.9 kmh 29.25 in990.5 mb 0.01 in0.3 mm 0.06 in1.5 mm 0.01 in0.3 mm
02:00 AM 48.4°F9.1°C 42.2°F5.7°C 79% 8.2 mph SW13.2 kmh SW 11.4 mph18.3 kmh 29.25 in990.5 mb 0.01 in0.3 mm 0.00 in0.0 mm 0.01 in0.3 mm
02:10 AM 48.2°F9.0°C 42.0°F5.6°C 79% 8.0 mph SW12.9 kmh SW 11.4 mph18.3 kmh 29.24 in990.2 mb 0.01 in0.3 mm 0.00 in0.0 mm 0.01 in0.3 mm
02:20 AM 48.2°F9.0°C 42.0°F5.6°C 79% 8.3 mph SW13.4 kmh SW 12.1 mph19.5 kmh 29.24 in990.2 mb 0.01 in0.3 mm 0.00 in0.0 mm 0.01 in0.3 mm
02:30 AM 48.2°F9.0°C 42.0°F5.6°C 79% 7.3 mph WSW11.7 kmh WSW 12.1 mph19.5 kmh 29.24 in990.2 mb 0.01 in0.3 mm 0.00 in0.0 mm 0.01 in0.3 mm
02:40 AM 48.0°F8.9°C 41.8°F5.4°C 79% 7.7 mph SW12.4 kmh SW 12.1 mph19.5 kmh 29.24 in990.2 mb 0.01 in0.3 mm 0.00 in0.0 mm 0.01 in0.3 mm
02:50 AM 47.7°F8.7°C 41.5°F5.3°C 79% 5.6 mph SW9.0 kmh SW 9.2 mph14.8 kmh 29.23 in989.8 mb 0.00 in0.0 mm 0.00 in0.0 mm 0.01 in0.3 mm
03:00 AM 47.7°F8.7°C 41.5°F5.3°C 79% 6.7 mph SSW10.8 kmh SSW 11.4 mph18.3 kmh 29.22 in989.5 mb 0.00 in0.0 mm 0.00 in0.0 mm 0.01 in0.3 mm
03:10 AM 47.7°F8.7°C 41.5°F5.3°C 79% 7.4 mph SW11.9 kmh SW 12.1 mph19.5 kmh 29.22 in989.5 mb 0.00 in0.0 mm 0.00 in0.0 mm 0.01 in0.3 mm
03:20 AM 47.5°F8.6°C 41.3°F5.2°C 79% 5.3 mph SSW8.5 kmh SSW 8.3 mph13.4 kmh 29.21 in989.2 mb 0.00 in0.0 mm 0.00 in0.0 mm 0.01 in0.3 mm
03:30 AM 47.3°F8.5°C 41.1°F5.1°C 79% 5.2 mph SSW8.4 kmh SSW 8.3 mph13.4 kmh 29.21 in989.2 mb 0.00 in0.0 mm 0.00 in0.0 mm 0.01 in0.3 mm
03:40 AM 47.1°F8.4°C 41.3°F5.2°C 80% 5.6 mph SW9.0 kmh SW 9.2 mph14.8 kmh 29.21 in989.2 mb 0.00 in0.0 mm 0.00 in0.0 mm 0.01 in0.3 mm
03:50 AM 47.3°F8.5°C 41.4°F5.2°C 80% 8.3 mph SW13.4 kmh SW 10.7 mph17.2 kmh 29.20 in988.8 mb 0.00 in0.0 mm 0.00 in0.0 mm 0.01 in0.3 mm
04:00 AM 47.3°F8.5°C 41.4°F5.2°C 80% 7.0 mph SSW11.3 kmh SSW 10.7 mph17.2 kmh 29.20 in988.8 mb 0.00 in0.0 mm 0.00 in0.0 mm 0.01 in0.3 mm
04:10 AM 47.1°F8.4°C 41.3°F5.2°C 80% 6.8 mph SSW10.9 kmh SSW 8.3 mph13.4 kmh 29.19 in988.5 mb 0.00 in0.0 mm 0.00 in0.0 mm 0.01 in0.3 mm
04:20 AM 47.1°F8.4°C 41.3°F5.2°C 80% 7.0 mph SW11.3 kmh SW 12.1 mph19.5 kmh 29.19 in988.5 mb 0.00 in0.0 mm 0.00 in0.0 mm 0.01 in0.3 mm
04:30 AM 47.1°F8.4°C 41.3°F5.2°C 80% 6.8 mph S10.9 kmh S 9.8 mph15.8 kmh 29.18 in988.1 mb 0.00 in0.0 mm 0.00 in0.0 mm 0.01 in0.3 mm
04:40 AM 47.1°F8.4°C 41.3°F5.2°C 80% 8.2 mph S13.2 kmh S 10.7 mph17.2 kmh 29.17 in987.8 mb 0.00 in0.0 mm 0.00 in0.0 mm 0.01 in0.3 mm
04:50 AM 47.1°F8.4°C 41.3°F5.2°C 80% 8.3 mph SW13.4 kmh SW 13.0 mph20.9 kmh 29.18 in988.1 mb 0.00 in0.0 mm 0.00 in0.0 mm 0.01 in0.3 mm
05:00 AM 46.9°F8.3°C 41.1°F5.1°C 80% 7.7 mph SSW12.4 kmh SSW 13.0 mph20.9 kmh 29.18 in988.1 mb 0.00 in0.0 mm 0.00 in0.0 mm 0.01 in0.3 mm
05:10 AM 47.1°F8.4°C 41.3°F5.2°C 80% 8.6 mph SW13.8 kmh SW 13.0 mph20.9 kmh 29.18 in988.1 mb 0.00 in0.0 mm 0.00 in0.0 mm 0.01 in0.3 mm
05:20 AM 47.3°F8.5°C 41.1°F5.1°C 79% 9.5 mph WSW15.3 kmh WSW 12.1 mph19.5 kmh 29.17 in987.8 mb 0.00 in0.0 mm 0.00 in0.0 mm 0.01 in0.3 mm
05:30 AM 47.1°F8.4°C 40.3°F4.6°C 77% 9.2 mph SW14.8 kmh SW 13.0 mph20.9 kmh 29.17 in987.8 mb 0.00 in0.0 mm 0.00 in0.0 mm 0.01 in0.3 mm
05:40 AM 47.3°F8.5°C 40.5°F4.7°C 77% 8.8 mph SW14.2 kmh SW 13.0 mph20.9 kmh 29.16 in987.5 mb 0.00 in0.0 mm 0.00 in0.0 mm 0.01 in0.3 mm
05:50 AM 47.1°F8.4°C 40.0°F4.4°C 76% 7.9 mph SSW12.7 kmh SSW 9.8 mph15.8 kmh 29.16 in987.5 mb 0.00 in0.0 mm 0.00 in0.0 mm 0.01 in0.3 mm
06:00 AM 46.9°F8.3°C 39.8°F4.3°C 76% 7.5 mph SSW12.1 kmh SSW 9.8 mph15.8 kmh 29.16 in987.5 mb 0.00 in0.0 mm 0.00 in0.0 mm 0.01 in0.3 mm
06:10 AM 46.9°F8.3°C 40.1°F4.5°C 77% 8.4 mph S13.5 kmh S 11.4 mph18.3 kmh 29.16 in987.5 mb 0.00 in0.0 mm 0.00 in0.0 mm 0.01 in0.3 mm
06:20 AM 46.8°F8.2°C 39.9°F4.4°C 77% 5.9 mph SW9.5 kmh SW 9.2 mph14.8 kmh 29.16 in987.5 mb 0.00 in0.0 mm 0.00 in0.0 mm 0.01 in0.3 mm
06:30 AM 46.9°F8.3°C 40.4°F4.7°C 78% 7.5 mph SW12.1 kmh SW 9.8 mph15.8 kmh 29.15 in987.1 mb 0.00 in0.0 mm 0.00 in0.0 mm 0.01 in0.3 mm
06:40 AM 46.8°F8.2°C 40.6°F4.8°C 79% 5.6 mph SSW9.0 kmh SSW 9.8 mph15.8 kmh 29.15 in987.1 mb 0.00 in0.0 mm 0.00 in0.0 mm 0.01 in0.3 mm
06:50 AM 46.8°F8.2°C 40.9°F4.9°C 80% 6.0 mph W9.7 kmh W 7.6 mph12.2 kmh 29.14 in986.8 mb 0.00 in0.0 mm 0.00 in0.0 mm 0.01 in0.3 mm
07:00 AM 47.1°F8.4°C 41.3°F5.2°C 80% 5.9 mph SW9.5 kmh SW 9.8 mph15.8 kmh 29.14 in986.8 mb 0.00 in0.0 mm 0.00 in0.0 mm 0.01 in0.3 mm
07:10 AM 47.1°F8.4°C 41.3°F5.2°C 80% 7.0 mph SW11.3 kmh SW 9.8 mph15.8 kmh 29.14 in986.8 mb 0.00 in0.0 mm 0.00 in0.0 mm 0.01 in0.3 mm
07:20 AM 47.3°F8.5°C 41.4°F5.2°C 80% 9.2 mph S14.8 kmh S 18.3 mph29.5 kmh 29.15 in987.1 mb 0.00 in0.0 mm 0.00 in0.0 mm 0.01 in0.3 mm
07:30 AM 47.5°F8.6°C 41.9°F5.5°C 81% 8.4 mph SSW13.5 kmh SSW 13.0 mph20.9 kmh 29.16 in987.5 mb 0.00 in0.0 mm 0.00 in0.0 mm 0.01 in0.3 mm
07:40 AM 47.3°F8.5°C 41.8°F5.4°C 81% 5.2 mph WSW8.4 kmh WSW 9.2 mph14.8 kmh 29.16 in987.5 mb 0.00 in0.0 mm 0.00 in0.0 mm 0.01 in0.3 mm
07:50 AM 47.5°F8.6°C 41.9°F5.5°C 81% 5.7 mph W9.2 kmh W 7.6 mph12.2 kmh 29.16 in987.5 mb 0.00 in0.0 mm 0.00 in0.0 mm 0.01 in0.3 mm
08:00 AM 47.7°F8.7°C 42.1°F5.6°C 81% 5.8 mph WSW9.3 kmh WSW 9.2 mph14.8 kmh 29.15 in987.1 mb 0.00 in0.0 mm 0.00 in0.0 mm 0.01 in0.3 mm
08:10 AM 48.0°F8.9°C 42.5°F5.8°C 81% 6.4 mph W10.3 kmh W 14.5 mph23.3 kmh 29.16 in987.5 mb 0.00 in0.0 mm 0.00 in0.0 mm 0.01 in0.3 mm
08:20 AM 48.2°F9.0°C 42.6°F5.9°C 81% 5.6 mph WSW9.0 kmh WSW 8.3 mph13.4 kmh 29.15 in987.1 mb 0.00 in0.0 mm 0.00 in0.0 mm 0.01 in0.3 mm
08:30 AM 48.4°F9.1°C 42.5°F5.8°C 80% 5.9 mph WSW9.5 kmh WSW 7.6 mph12.2 kmh 29.16 in987.5 mb 0.00 in0.0 mm 0.00 in0.0 mm 0.01 in0.3 mm
08:40 AM 48.7°F9.3°C 42.9°F6.1°C 80% 8.2 mph SW13.2 kmh SW 12.1 mph19.5 kmh 29.17 in987.8 mb 0.00 in0.0 mm 0.00 in0.0 mm 0.01 in0.3 mm
08:50 AM 49.3°F9.6°C 43.4°F6.3°C 80% 6.3 mph SSW10.1 kmh SSW 9.8 mph15.8 kmh 29.17 in987.8 mb 0.00 in0.0 mm 0.00 in0.0 mm 0.01 in0.3 mm
09:00 AM 49.5°F9.7°C 43.6°F6.4°C 80% 8.1 mph S13.0 kmh S 9.8 mph15.8 kmh 29.17 in987.8 mb 0.00 in0.0 mm 0.00 in0.0 mm 0.01 in0.3 mm
09:10 AM 49.8°F9.9°C 43.9°F6.6°C 80% 10.5 mph SSW16.9 kmh SSW 12.1 mph19.5 kmh 29.17 in987.8 mb 0.00 in0.0 mm 0.00 in0.0 mm 0.01 in0.3 mm
09:20 AM 49.8°F9.9°C 43.6°F6.4°C 79% 8.8 mph SW14.2 kmh SW 14.5 mph23.3 kmh 29.17 in987.8 mb 0.00 in0.0 mm 0.00 in0.0 mm 0.01 in0.3 mm
09:30 AM 50.0°F10.0°C 43.8°F6.6°C 79% 8.5 mph SSW13.7 kmh SSW 14.5 mph23.3 kmh 29.17 in987.8 mb 0.00 in0.0 mm 0.00 in0.0 mm 0.01 in0.3 mm
09:40 AM 50.4°F10.2°C 44.1°F6.7°C 79% 7.6 mph S12.2 kmh S 9.8 mph15.8 kmh 29.16 in987.5 mb 0.00 in0.0 mm 0.00 in0.0 mm 0.01 in0.3 mm
09:50 AM 50.2°F10.1°C 43.6°F6.4°C 78% 11.4 mph S18.3 kmh S 15.2 mph24.5 kmh 29.16 in987.5 mb 0.00 in0.0 mm 0.00 in0.0 mm 0.01 in0.3 mm
10:00 AM 50.4°F10.2°C 44.1°F6.7°C 79% 8.0 mph S12.9 kmh S 11.4 mph18.3 kmh 29.16 in987.5 mb 0.00 in0.0 mm 0.00 in0.0 mm 0.01 in0.3 mm
10:10 AM 50.7°F10.4°C 44.5°F6.9°C 79% 9.0 mph SW14.5 kmh SW 11.4 mph18.3 kmh 29.17 in987.8 mb 0.00 in0.0 mm 0.00 in0.0 mm 0.01 in0.3 mm
10:20 AM 50.7°F10.4°C 44.5°F6.9°C 79% 7.1 mph S11.4 kmh S 9.2 mph14.8 kmh 29.16 in987.5 mb 0.00 in0.0 mm 0.00 in0.0 mm 0.01 in0.3 mm
10:30 AM 50.4°F10.2°C 44.1°F6.7°C 79% 7.8 mph S12.6 kmh S 11.4 mph18.3 kmh 29.17 in987.8 mb 0.00 in0.0 mm 0.00 in0.0 mm 0.01 in0.3 mm
10:40 AM 50.4°F10.2°C 44.4°F6.9°C 80% 7.8 mph SW12.6 kmh SW 11.4 mph18.3 kmh 29.18 in988.1 mb 0.00 in0.0 mm 0.00 in0.0 mm 0.01 in0.3 mm
10:50 AM 50.2°F10.1°C 44.3°F6.8°C 80% 8.9 mph S14.3 kmh S 10.7 mph17.2 kmh 29.18 in988.1 mb 0.00 in0.0 mm 0.00 in0.0 mm 0.01 in0.3 mm
11:00 AM 50.0°F10.0°C 44.4°F6.9°C 81% 7.5 mph SSW12.1 kmh SSW 13.6 mph21.9 kmh 29.18 in988.1 mb 0.00 in0.0 mm 0.00 in0.0 mm 0.01 in0.3 mm
11:10 AM 50.2°F10.1°C 44.9°F7.2°C 82% 10.4 mph SW16.7 kmh SW 13.0 mph20.9 kmh 29.18 in988.1 mb 0.00 in0.0 mm 0.00 in0.0 mm 0.01 in0.3 mm
11:20 AM 50.4°F10.2°C 45.4°F7.4°C 83% 8.8 mph SW14.2 kmh SW 13.6 mph21.9 kmh 29.18 in988.1 mb 0.00 in0.0 mm 0.00 in0.0 mm 0.01 in0.3 mm
11:30 AM 50.5°F10.3°C 45.9°F7.7°C 84% 4.1 mph SSW6.6 kmh SSW 8.3 mph13.4 kmh 29.18 in988.1 mb 0.00 in0.0 mm 0.00 in0.0 mm 0.01 in0.3 mm
11:40 AM 50.5°F10.3°C 45.9°F7.7°C 84% Calm Calm -- 29.18 in988.1 mb 0.00 in0.0 mm 0.00 in0.0 mm 0.01 in0.3 mm
11:50 AM 50.5°F10.3°C 45.9°F7.7°C 84% Calm Calm -- 29.18 in988.1 mb 0.00 in0.0 mm 0.00 in0.0 mm 0.01 in0.3 mm
12:00 PM 50.5°F10.3°C 45.9°F7.7°C 84% Calm Calm -- 29.18 in988.1 mb 0.00 in0.0 mm 0.00 in0.0 mm 0.01 in0.3 mm
12:10 PM 50.5°F10.3°C 45.9°F7.7°C 84% Calm Calm -- 29.18 in988.1 mb 0.00 in0.0 mm 0.00 in0.0 mm 0.01 in0.3 mm
12:20 PM 50.5°F10.3°C 45.9°F7.7°C 84% Calm Calm -- 29.18 in988.1 mb 0.00 in0.0 mm 0.00 in0.0 mm 0.01 in0.3 mm
12:30 PM 50.5°F10.3°C 45.9°F7.7°C 84% Calm Calm -- 29.17 in987.8 mb 0.00 in0.0 mm 0.00 in0.0 mm 0.01 in0.3 mm
12:40 PM 50.5°F10.3°C 45.9°F7.7°C 84% Calm Calm -- 29.17 in987.8 mb 0.00 in0.0 mm 0.00 in0.0 mm 0.01 in0.3 mm
12:50 PM 50.5°F10.3°C 45.9°F7.7°C 84% Calm Calm -- 29.18 in988.1 mb 0.00 in0.0 mm 0.00 in0.0 mm 0.01 in0.3 mm
01:00 PM 50.5°F10.3°C 45.9°F7.7°C 84% Calm Calm -- 29.18 in988.1 mb 0.00 in0.0 mm 0.00 in0.0 mm 0.01 in0.3 mm
01:10 PM 50.5°F10.3°C 45.9°F7.7°C 84% Calm Calm -- 29.17 in987.8 mb 0.00 in0.0 mm 0.00 in0.0 mm 0.01 in0.3 mm
01:20 PM 50.5°F10.3°C 45.9°F7.7°C 84% Calm Calm -- 29.17 in987.8 mb 0.00 in0.0 mm 0.00 in0.0 mm 0.01 in0.3 mm
01:30 PM 50.5°F10.3°C 45.9°F7.7°C 84% Calm Calm -- 29.18 in988.1 mb 0.00 in0.0 mm 0.00 in0.0 mm 0.01 in0.3 mm
01:40 PM 50.5°F10.3°C 45.9°F7.7°C 84% Calm Calm -- 29.18 in988.1 mb 0.00 in0.0 mm 0.00 in0.0 mm 0.01 in0.3 mm
01:50 PM 50.5°F10.3°C 45.9°F7.7°C 84% Calm Calm -- 29.18 in988.1 mb 0.00 in0.0 mm 0.00 in0.0 mm 0.01 in0.3 mm
02:00 PM 50.5°F10.3°C 45.9°F7.7°C 84% Calm Calm -- 29.17 in987.8 mb 0.00 in0.0 mm 0.00 in0.0 mm 0.01 in0.3 mm
02:10 PM 50.5°F10.3°C 45.9°F7.7°C 10% Calm Calm -- 29.18 in988.1 mb 0.00 in0.0 mm 0.00 in0.0 mm 0.01 in0.3 mm
02:20 PM 50.5°F10.3°C 45.9°F7.7°C 10% Calm Calm -- 29.18 in988.1 mb 0.00 in0.0 mm 0.00 in0.0 mm 0.01 in0.3 mm
02:30 PM 50.5°F10.3°C 45.9°F7.7°C 10% Calm Calm -- 29.18 in988.1 mb 0.00 in0.0 mm 0.00 in0.0 mm 0.01 in0.3 mm
02:40 PM 50.5°F10.3°C 45.9°F7.7°C 10% Calm Calm -- 29.18 in988.1 mb 0.00 in0.0 mm 0.00 in0.0 mm 0.01 in0.3 mm
02:50 PM 50.5°F10.3°C 45.9°F7.7°C 10% Calm Calm -- 29.18 in988.1 mb 0.00 in0.0 mm 0.00 in0.0 mm 0.01 in0.3 mm
03:00 PM 50.5°F10.3°C 45.9°F7.7°C 10% Calm Calm -- 29.18 in988.1 mb 0.00 in0.0 mm 0.00 in0.0 mm 0.01 in0.3 mm
03:10 PM 50.5°F10.3°C 45.9°F7.7°C 10% Calm Calm -- 29.18 in988.1 mb 0.00 in0.0 mm 0.00 in0.0 mm 0.01 in0.3 mm
03:20 PM 50.5°F10.3°C 45.9°F7.7°C 10% Calm Calm -- 29.18 in988.1 mb 0.00 in0.0 mm 0.00 in0.0 mm 0.01 in0.3 mm
03:30 PM 50.5°F10.3°C 45.9°F7.7°C 10% Calm Calm -- 29.18 in988.1 mb 0.00 in0.0 mm 0.00 in0.0 mm 0.01 in0.3 mm
03:40 PM 50.5°F10.3°C 45.9°F7.7°C 10% Calm Calm -- 29.18 in988.1 mb 0.00 in0.0 mm 0.00 in0.0 mm 0.01 in0.3 mm
03:50 PM 50.5°F10.3°C 45.9°F7.7°C 10% Calm Calm -- 29.18 in988.1 mb 0.00 in0.0 mm 0.00 in0.0 mm 0.01 in0.3 mm
04:00 PM 50.5°F10.3°C 45.9°F7.7°C 10% Calm Calm -- 29.18 in988.1 mb 0.00 in0.0 mm 0.00 in0.0 mm 0.01 in0.3 mm
04:10 PM 50.5°F10.3°C 45.9°F7.7°C 10% Calm Calm -- 29.18 in988.1 mb 0.00 in0.0 mm 0.00 in0.0 mm 0.01 in0.3 mm
04:20 PM 50.5°F10.3°C 45.9°F7.7°C 10% Calm Calm -- 29.18 in988.1 mb 0.00 in0.0 mm 0.00 in0.0 mm 0.01 in0.3 mm
04:30 PM 50.5°F10.3°C 45.9°F7.7°C 10% Calm Calm -- 29.18 in988.1 mb 0.00 in0.0 mm 0.00 in0.0 mm 0.01 in0.3 mm
04:40 PM 50.5°F10.3°C 45.9°F7.7°C 10% Calm Calm -- 29.19 in988.5 mb 0.00 in0.0 mm 0.00 in0.0 mm 0.01 in0.3 mm
04:50 PM 50.5°F10.3°C 45.9°F7.7°C 10% Calm Calm -- 29.18 in988.1 mb 0.00 in0.0 mm 0.00 in0.0 mm 0.01 in0.3 mm
05:00 PM 50.5°F10.3°C 45.9°F7.7°C 10% Calm Calm -- 29.18 in988.1 mb 0.00 in0.0 mm 0.00 in0.0 mm 0.01 in0.3 mm
05:10 PM 50.5°F10.3°C 45.9°F7.7°C 10% Calm Calm -- 29.18 in988.1 mb 0.00 in0.0 mm 0.00 in0.0 mm 0.01 in0.3 mm
05:20 PM 50.5°F10.3°C 45.9°F7.7°C 10% Calm Calm -- 29.19 in988.5 mb 0.00 in0.0 mm 0.00 in0.0 mm 0.01 in0.3 mm
05:30 PM 50.5°F10.3°C 45.9°F7.7°C 10% Calm Calm -- 29.18 in988.1 mb 0.00 in0.0 mm 0.00 in0.0 mm 0.01 in0.3 mm
05:40 PM 50.5°F10.3°C 45.9°F7.7°C 10% Calm Calm -- 29.19 in988.5 mb 0.00 in0.0 mm 0.00 in0.0 mm 0.01 in0.3 mm
05:50 PM 50.5°F10.3°C 45.9°F7.7°C 10% Calm Calm -- 29.19 in988.5 mb 0.00 in0.0 mm 0.00 in0.0 mm 0.01 in0.3 mm
06:00 PM 50.5°F10.3°C 45.9°F7.7°C 10% Calm Calm -- 29.19 in988.5 mb 0.00 in0.0 mm 0.00 in0.0 mm 0.01 in0.3 mm
06:10 PM 50.5°F10.3°C 45.9°F7.7°C 10% Calm Calm -- 29.19 in988.5 mb 0.00 in0.0 mm 0.00 in0.0 mm 0.01 in0.3 mm
06:20 PM 49.5°F9.7°C 44.2°F6.8°C 82% 5.3 mph SSW8.5 kmh SSW 9.2 mph14.8 kmh 29.19 in988.5 mb 0.00 in0.0 mm 0.00 in0.0 mm 0.01 in0.3 mm
06:30 PM 49.1°F9.5°C 43.8°F6.6°C 82% 6.8 mph S10.9 kmh S 11.4 mph18.3 kmh 29.20 in988.8 mb 0.00 in0.0 mm 0.00 in0.0 mm 0.01 in0.3 mm
06:40 PM 48.9°F9.4°C 44.0°F6.7°C 83% 4.9 mph SSW7.9 kmh SSW 10.7 mph17.2 kmh 29.20 in988.8 mb 0.00 in0.0 mm 0.00 in0.0 mm 0.01 in0.3 mm
06:50 PM 48.7°F9.3°C 43.8°F6.6°C 83% 6.0 mph SW9.7 kmh SW 9.2 mph14.8 kmh 29.20 in988.8 mb 0.00 in0.0 mm 0.00 in0.0 mm 0.01 in0.3 mm
07:00 PM 48.6°F9.2°C 43.6°F6.4°C 83% 3.2 mph WSW5.1 kmh WSW 7.6 mph12.2 kmh 29.20 in988.8 mb 0.00 in0.0 mm 0.00 in0.0 mm 0.01 in0.3 mm
07:10 PM 48.4°F9.1°C 43.5°F6.4°C 83% 4.1 mph S6.6 kmh S 6.9 mph11.1 kmh 29.20 in988.8 mb 0.00 in0.0 mm 0.00 in0.0 mm 0.01 in0.3 mm
07:20 PM 48.2°F9.0°C 43.3°F6.3°C 83% 1.3 mph SSW2.1 kmh SSW 8.3 mph13.4 kmh 29.21 in989.2 mb 0.00 in0.0 mm 0.00 in0.0 mm 0.01 in0.3 mm
07:30 PM 48.4°F9.1°C 43.5°F6.4°C 83% 4.8 mph SSW7.7 kmh SSW 9.8 mph15.8 kmh 29.20 in988.8 mb 0.00 in0.0 mm 0.00 in0.0 mm 0.01 in0.3 mm
07:40 PM 48.9°F9.4°C 44.3°F6.8°C 84% 7.1 mph SW11.4 kmh SW 9.2 mph14.8 kmh 29.21 in989.2 mb 0.00 in0.0 mm 0.00 in0.0 mm 0.01 in0.3 mm
07:50 PM 49.1°F9.5°C 44.5°F6.9°C 84% 10.6 mph SW17.1 kmh SW 15.9 mph25.6 kmh 29.21 in989.2 mb 0.00 in0.0 mm 0.00 in0.0 mm 0.01 in0.3 mm
08:00 PM 49.1°F9.5°C 44.5°F6.9°C 84% 7.0 mph WSW11.3 kmh WSW 9.8 mph15.8 kmh 29.22 in989.5 mb 0.00 in0.0 mm 0.00 in0.0 mm 0.01 in0.3 mm
08:10 PM 49.3°F9.6°C 44.7°F7.1°C 84% 8.0 mph S12.9 kmh S 12.1 mph19.5 kmh 29.22 in989.5 mb 0.00 in0.0 mm 0.00 in0.0 mm 0.01 in0.3 mm
08:20 PM 49.6°F9.8°C 44.7°F7.1°C 83% 8.8 mph S14.2 kmh S 11.4 mph18.3 kmh 29.22 in989.5 mb 0.00 in0.0 mm 0.00 in0.0 mm 0.01 in0.3 mm
08:30 PM 49.5°F9.7°C 44.2°F6.8°C 82% 7.0 mph SSW11.3 kmh SSW 9.8 mph15.8 kmh 29.22 in989.5 mb 0.00 in0.0 mm 0.00 in0.0 mm 0.01 in0.3 mm
08:40 PM 49.5°F9.7°C 44.2°F6.8°C 82% 7.9 mph SSW12.7 kmh SSW 9.8 mph15.8 kmh 29.21 in989.2 mb 0.00 in0.0 mm 0.00 in0.0 mm 0.01 in0.3 mm
08:50 PM 49.5°F9.7°C 44.2°F6.8°C 82% 9.3 mph SSW15.0 kmh SSW 12.1 mph19.5 kmh 29.22 in989.5 mb 0.00 in0.0 mm 0.00 in0.0 mm 0.01 in0.3 mm
09:00 PM 49.5°F9.7°C 44.2°F6.8°C 82% 6.2 mph SSW10.0 kmh SSW 11.4 mph18.3 kmh 29.22 in989.5 mb 0.00 in0.0 mm 0.00 in0.0 mm 0.01 in0.3 mm
09:10 PM 49.5°F9.7°C 44.2°F6.8°C 82% 8.4 mph SSW13.5 kmh SSW 11.4 mph18.3 kmh 29.22 in989.5 mb 0.00 in0.0 mm 0.00 in0.0 mm 0.01 in0.3 mm
09:20 PM 49.3°F9.6°C 43.7°F6.5°C 81% 6.7 mph WSW10.8 kmh WSW 9.8 mph15.8 kmh 29.22 in989.5 mb 0.00 in0.0 mm 0.00 in0.0 mm 0.01 in0.3 mm
09:30 PM 49.3°F9.6°C 43.7°F6.5°C 81% 8.4 mph SSW13.5 kmh SSW 9.8 mph15.8 kmh 29.23 in989.8 mb 0.00 in0.0 mm 0.00 in0.0 mm 0.01 in0.3 mm
09:40 PM 49.3°F9.6°C 43.7°F6.5°C 81% 8.3 mph SW13.4 kmh SW 11.4 mph18.3 kmh 29.22 in989.5 mb 0.00 in0.0 mm 0.00 in0.0 mm 0.01 in0.3 mm
09:50 PM 49.3°F9.6°C 43.7°F6.5°C 81% 6.3 mph SSW10.1 kmh SSW 9.8 mph15.8 kmh 29.22 in989.5 mb 0.00 in0.0 mm 0.00 in0.0 mm 0.01 in0.3 mm
10:00 PM 49.3°F9.6°C 43.7°F6.5°C 81% 8.2 mph SSW13.2 kmh SSW 14.5 mph23.3 kmh 29.22 in989.5 mb 0.00 in0.0 mm 0.00 in0.0 mm 0.01 in0.3 mm
10:10 PM 49.6°F9.8°C 44.1°F6.7°C 81% 9.3 mph S15.0 kmh S 14.5 mph23.3 kmh 29.23 in989.8 mb 0.00 in0.0 mm 0.00 in0.0 mm 0.01 in0.3 mm
10:20 PM 49.6°F9.8°C 44.1°F6.7°C 81% 8.6 mph SW13.8 kmh SW 14.5 mph23.3 kmh 29.22 in989.5 mb 0.00 in0.0 mm 0.00 in0.0 mm 0.01 in0.3 mm
10:30 PM 49.6°F9.8°C 44.1°F6.7°C 81% 8.3 mph S13.4 kmh S 12.1 mph19.5 kmh 29.23 in989.8 mb 0.00 in0.0 mm 0.00 in0.0 mm 0.01 in0.3 mm
10:40 PM 49.8°F9.9°C 44.6°F7.0°C 82% 8.6 mph SW13.8 kmh SW 13.6 mph21.9 kmh 29.23 in989.8 mb 0.00 in0.0 mm 0.00 in0.0 mm 0.01 in0.3 mm
10:50 PM 49.6°F9.8°C 44.1°F6.7°C 81% 10.3 mph SW16.6 kmh SW 19.7 mph31.7 kmh 29.23 in989.8 mb 0.00 in0.0 mm 0.00 in0.0 mm 0.01 in0.3 mm
11:00 PM 49.8°F9.9°C 44.2°F6.8°C 81% 9.6 mph WSW15.4 kmh WSW 13.6 mph21.9 kmh 29.23 in989.8 mb 0.00 in0.0 mm 0.00 in0.0 mm 0.01 in0.3 mm
11:10 PM 49.6°F9.8°C 43.7°F6.5°C 80% 8.4 mph SW13.5 kmh SW 13.0 mph20.9 kmh 29.22 in989.5 mb 0.00 in0.0 mm 0.00 in0.0 mm 0.01 in0.3 mm
11:20 PM 49.5°F9.7°C 43.9°F6.6°C 81% 9.6 mph SW15.4 kmh SW 15.2 mph24.5 kmh 29.23 in989.8 mb 0.00 in0.0 mm 0.00 in0.0 mm 0.01 in0.3 mm
11:30 PM 49.6°F9.8°C 44.1°F6.7°C 81% 9.4 mph SSW15.1 kmh SSW 14.5 mph23.3 kmh 29.23 in989.8 mb 0.00 in0.0 mm 0.00 in0.0 mm 0.01 in0.3 mm
11:40 PM 49.8°F9.9°C 44.2°F6.8°C 81% 8.8 mph SSW14.2 kmh SSW 12.1 mph19.5 kmh 29.22 in989.5 mb 0.00 in0.0 mm 0.00 in0.0 mm 0.01 in0.3 mm
11:50 PM 49.8°F9.9°C 44.2°F6.8°C 81% 8.8 mph SSW14.2 kmh SSW 12.1 mph19.5 kmh 29.22 in989.5 mb 0.00 in0.0 mm 0.00 in0.0 mm 0.01 in0.3 mm